sensor_id;sensor_type;location;lat;lon;timestamp;P1;durP1;ratioP1;P2;durP2;ratioP2
79670;SDS011;69137;50.878;8.050;2023-06-22T00:02:13;12.50;;;8.20;;
79670;SDS011;69137;50.878;8.050;2023-06-22T00:04:38;10.00;;;7.65;;
79670;SDS011;69137;50.878;8.050;2023-06-22T00:07:03;12.25;;;8.45;;
79670;SDS011;69137;50.878;8.050;2023-06-22T00:09:30;11.25;;;7.80;;
79670;SDS011;69137;50.878;8.050;2023-06-22T00:11:56;12.10;;;7.85;;
79670;SDS011;69137;50.878;8.050;2023-06-22T00:14:21;16.98;;;8.18;;
79670;SDS011;69137;50.878;8.050;2023-06-22T00:16:47;13.13;;;7.70;;
79670;SDS011;69137;50.878;8.050;2023-06-22T00:19:13;10.27;;;7.90;;
79670;SDS011;69137;50.878;8.050;2023-06-22T00:21:40;11.05;;;8.60;;
79670;SDS011;69137;50.878;8.050;2023-06-22T00:24:05;9.80;;;8.80;;
79670;SDS011;69137;50.878;8.050;2023-06-22T00:26:31;14.50;;;8.57;;
79670;SDS011;69137;50.878;8.050;2023-06-22T00:28:57;10.48;;;8.80;;
79670;SDS011;69137;50.878;8.050;2023-06-22T00:31:22;10.00;;;8.30;;
79670;SDS011;69137;50.878;8.050;2023-06-22T00:33:47;10.02;;;8.02;;
79670;SDS011;69137;50.878;8.050;2023-06-22T00:36:15;14.18;;;8.02;;
79670;SDS011;69137;50.878;8.050;2023-06-22T00:38:44;10.73;;;8.65;;
79670;SDS011;69137;50.878;8.050;2023-06-22T00:41:09;13.18;;;9.00;;
79670;SDS011;69137;50.878;8.050;2023-06-22T00:43:35;10.43;;;8.82;;
79670;SDS011;69137;50.878;8.050;2023-06-22T00:46:00;10.68;;;8.07;;
79670;SDS011;69137;50.878;8.050;2023-06-22T00:48:26;10.05;;;8.30;;
79670;SDS011;69137;50.878;8.050;2023-06-22T00:50:52;13.63;;;8.57;;
79670;SDS011;69137;50.878;8.050;2023-06-22T00:53:18;12.25;;;9.10;;
79670;SDS011;69137;50.878;8.050;2023-06-22T00:55:44;13.00;;;8.40;;
79670;SDS011;69137;50.878;8.050;2023-06-22T00:58:16;10.63;;;8.27;;
79670;SDS011;69137;50.878;8.050;2023-06-22T01:00:46;11.23;;;8.02;;
79670;SDS011;69137;50.878;8.050;2023-06-22T01:03:12;11.52;;;8.88;;
79670;SDS011;69137;50.878;8.050;2023-06-22T01:05:38;17.08;;;8.90;;
79670;SDS011;69137;50.878;8.050;2023-06-22T01:10:41;12.10;;;8.35;;
79670;SDS011;69137;50.878;8.050;2023-06-22T01:13:21;10.63;;;9.38;;
79670;SDS011;69137;50.878;8.050;2023-06-22T01:18:28;11.85;;;9.35;;
79670;SDS011;69137;50.878;8.050;2023-06-22T01:20:56;11.45;;;8.75;;
79670;SDS011;69137;50.878;8.050;2023-06-22T01:26:38;11.27;;;8.10;;
79670;SDS011;69137;50.878;8.050;2023-06-22T01:29:07;13.90;;;8.45;;
79670;SDS011;69137;50.878;8.050;2023-06-22T01:31:37;13.35;;;8.15;;
79670;SDS011;69137;50.878;8.050;2023-06-22T01:34:06;10.35;;;9.18;;
79670;SDS011;69137;50.878;8.050;2023-06-22T01:36:33;13.18;;;8.77;;
79670;SDS011;69137;50.878;8.050;2023-06-22T01:38:59;15.15;;;8.52;;
79670;SDS011;69137;50.878;8.050;2023-06-22T01:41:27;12.48;;;8.70;;
79670;SDS011;69137;50.878;8.050;2023-06-22T01:46:20;9.50;;;8.45;;
79670;SDS011;69137;50.878;8.050;2023-06-22T01:48:46;16.10;;;8.27;;
79670;SDS011;69137;50.878;8.050;2023-06-22T01:51:13;11.88;;;8.55;;
79670;SDS011;69137;50.878;8.050;2023-06-22T01:53:38;10.40;;;8.48;;
79670;SDS011;69137;50.878;8.050;2023-06-22T01:56:04;12.60;;;8.57;;
79670;SDS011;69137;50.878;8.050;2023-06-22T01:58:30;11.07;;;9.10;;
79670;SDS011;69137;50.878;8.050;2023-06-22T02:04:51;11.60;;;8.95;;
79670;SDS011;69137;50.878;8.050;2023-06-22T02:06:52;11.23;;;8.25;;
79670;SDS011;69137;50.878;8.050;2023-06-22T02:09:21;11.90;;;9.10;;
79670;SDS011;69137;50.878;8.050;2023-06-22T02:11:48;11.38;;;9.20;;
79670;SDS011;69137;50.878;8.050;2023-06-22T02:14:19;10.80;;;8.55;;
79670;SDS011;69137;50.878;8.050;2023-06-22T02:16:46;17.10;;;11.30;;
79670;SDS011;69137;50.878;8.050;2023-06-22T02:19:12;19.88;;;12.23;;
79670;SDS011;69137;50.878;8.050;2023-06-22T02:21:40;15.80;;;10.75;;
79670;SDS011;69137;50.878;8.050;2023-06-22T02:24:06;17.90;;;12.43;;
79670;SDS011;69137;50.878;8.050;2023-06-22T02:26:31;13.75;;;11.15;;
79670;SDS011;69137;50.878;8.050;2023-06-22T02:28:57;19.15;;;13.40;;
79670;SDS011;69137;50.878;8.050;2023-06-22T02:31:23;15.48;;;11.85;;
79670;SDS011;69137;50.878;8.050;2023-06-22T02:33:55;14.82;;;10.85;;
79670;SDS011;69137;50.878;8.050;2023-06-22T02:36:22;19.83;;;11.50;;
79670;SDS011;69137;50.878;8.050;2023-06-22T02:38:49;15.73;;;10.73;;
79670;SDS011;69137;50.878;8.050;2023-06-22T02:41:15;14.75;;;11.77;;
79670;SDS011;69137;50.878;8.050;2023-06-22T02:43:43;18.77;;;12.35;;
79670;SDS011;69137;50.878;8.050;2023-06-22T02:46:10;24.35;;;11.93;;
79670;SDS011;69137;50.878;8.050;2023-06-22T02:48:36;15.65;;;12.13;;
79670;SDS011;69137;50.878;8.050;2023-06-22T02:51:01;17.33;;;11.38;;
79670;SDS011;69137;50.878;8.050;2023-06-22T02:53:27;15.02;;;11.57;;
79670;SDS011;69137;50.878;8.050;2023-06-22T02:55:52;13.20;;;11.07;;
79670;SDS011;69137;50.878;8.050;2023-06-22T02:58:18;11.60;;;10.40;;
79670;SDS011;69137;50.878;8.050;2023-06-22T03:00:43;13.15;;;11.07;;
79670;SDS011;69137;50.878;8.050;2023-06-22T03:03:08;14.40;;;11.70;;
79670;SDS011;69137;50.878;8.050;2023-06-22T03:05:34;21.33;;;13.02;;
79670;SDS011;69137;50.878;8.050;2023-06-22T03:08:00;21.23;;;13.48;;
79670;SDS011;69137;50.878;8.050;2023-06-22T03:10:25;17.35;;;12.93;;
79670;SDS011;69137;50.878;8.050;2023-06-22T03:12:51;20.98;;;15.55;;
79670;SDS011;69137;50.878;8.050;2023-06-22T03:15:16;20.75;;;14.52;;
79670;SDS011;69137;50.878;8.050;2023-06-22T03:17:42;22.23;;;16.02;;
79670;SDS011;69137;50.878;8.050;2023-06-22T03:20:08;22.75;;;14.88;;
79670;SDS011;69137;50.878;8.050;2023-06-22T03:22:39;19.95;;;14.75;;
79670;SDS011;69137;50.878;8.050;2023-06-22T03:25:06;22.48;;;14.43;;
79670;SDS011;69137;50.878;8.050;2023-06-22T03:27:41;24.50;;;15.38;;
79670;SDS011;69137;50.878;8.050;2023-06-22T03:30:09;22.35;;;15.55;;
79670;SDS011;69137;50.878;8.050;2023-06-22T03:32:36;26.75;;;17.10;;
79670;SDS011;69137;50.878;8.050;2023-06-22T03:35:01;25.85;;;17.05;;
79670;SDS011;69137;50.878;8.050;2023-06-22T03:37:27;22.52;;;16.52;;
79670;SDS011;69137;50.878;8.050;2023-06-22T03:39:54;18.80;;;14.02;;
79670;SDS011;69137;50.878;8.050;2023-06-22T03:42:19;19.85;;;14.65;;
79670;SDS011;69137;50.878;8.050;2023-06-22T03:44:45;22.38;;;14.40;;
79670;SDS011;69137;50.878;8.050;2023-06-22T03:47:10;16.67;;;12.82;;
79670;SDS011;69137;50.878;8.050;2023-06-22T03:49:36;10.18;;;8.00;;
79670;SDS011;69137;50.878;8.050;2023-06-22T03:52:02;8.63;;;6.65;;
79670;SDS011;69137;50.878;8.050;2023-06-22T03:54:28;9.88;;;7.30;;
79670;SDS011;69137;50.878;8.050;2023-06-22T03:56:55;10.90;;;8.52;;
79670;SDS011;69137;50.878;8.050;2023-06-22T03:59:21;12.20;;;9.30;;
79670;SDS011;69137;50.878;8.050;2023-06-22T04:01:47;10.70;;;7.05;;
79670;SDS011;69137;50.878;8.050;2023-06-22T04:04:12;10.13;;;8.40;;
79670;SDS011;69137;50.878;8.050;2023-06-22T04:06:37;10.52;;;8.63;;
79670;SDS011;69137;50.878;8.050;2023-06-22T04:09:03;10.07;;;8.15;;
79670;SDS011;69137;50.878;8.050;2023-06-22T04:11:30;12.40;;;9.63;;
79670;SDS011;69137;50.878;8.050;2023-06-22T04:13:56;12.30;;;8.55;;
79670;SDS011;69137;50.878;8.050;2023-06-22T04:16:21;8.82;;;7.38;;
79670;SDS011;69137;50.878;8.050;2023-06-22T04:18:46;10.48;;;8.23;;
79670;SDS011;69137;50.878;8.050;2023-06-22T04:21:12;11.88;;;7.40;;
79670;SDS011;69137;50.878;8.050;2023-06-22T04:23:38;12.65;;;10.05;;
79670;SDS011;69137;50.878;8.050;2023-06-22T04:26:04;12.07;;;8.98;;
79670;SDS011;69137;50.878;8.050;2023-06-22T04:28:30;10.80;;;8.88;;
79670;SDS011;69137;50.878;8.050;2023-06-22T04:30:59;17.88;;;12.18;;
79670;SDS011;69137;50.878;8.050;2023-06-22T04:33:26;15.32;;;12.63;;
79670;SDS011;69137;50.878;8.050;2023-06-22T04:35:52;16.15;;;13.07;;
79670;SDS011;69137;50.878;8.050;2023-06-22T04:38:18;14.95;;;12.40;;
79670;SDS011;69137;50.878;8.050;2023-06-22T04:40:43;16.80;;;12.80;;
79670;SDS011;69137;50.878;8.050;2023-06-22T04:43:08;16.20;;;12.27;;
79670;SDS011;69137;50.878;8.050;2023-06-22T04:45:35;18.48;;;12.93;;
79670;SDS011;69137;50.878;8.050;2023-06-22T04:50:28;18.65;;;11.85;;
79670;SDS011;69137;50.878;8.050;2023-06-22T04:52:54;16.65;;;13.25;;
79670;SDS011;69137;50.878;8.050;2023-06-22T04:55:19;16.23;;;12.20;;
79670;SDS011;69137;50.878;8.050;2023-06-22T04:57:45;16.00;;;12.30;;
79670;SDS011;69137;50.878;8.050;2023-06-22T05:00:17;15.23;;;11.85;;
79670;SDS011;69137;50.878;8.050;2023-06-22T05:05:13;16.65;;;13.88;;
79670;SDS011;69137;50.878;8.050;2023-06-22T05:07:42;18.65;;;14.20;;
79670;SDS011;69137;50.878;8.050;2023-06-22T05:10:09;20.65;;;15.20;;
79670;SDS011;69137;50.878;8.050;2023-06-22T05:12:38;16.63;;;13.43;;
79670;SDS011;69137;50.878;8.050;2023-06-22T05:15:05;18.40;;;13.57;;
79670;SDS011;69137;50.878;8.050;2023-06-22T05:17:31;17.80;;;14.30;;
79670;SDS011;69137;50.878;8.050;2023-06-22T05:19:57;18.08;;;13.68;;
79670;SDS011;69137;50.878;8.050;2023-06-22T05:22:22;13.65;;;12.02;;
79670;SDS011;69137;50.878;8.050;2023-06-22T05:24:48;16.13;;;13.02;;
79670;SDS011;69137;50.878;8.050;2023-06-22T05:27:13;13.25;;;11.85;;
79670;SDS011;69137;50.878;8.050;2023-06-22T05:29:39;17.45;;;11.80;;
79670;SDS011;69137;50.878;8.050;2023-06-22T05:32:05;14.75;;;12.85;;
79670;SDS011;69137;50.878;8.050;2023-06-22T05:34:31;17.02;;;13.23;;
79670;SDS011;69137;50.878;8.050;2023-06-22T05:36:57;15.77;;;13.55;;
79670;SDS011;69137;50.878;8.050;2023-06-22T05:39:24;13.40;;;12.00;;
79670;SDS011;69137;50.878;8.050;2023-06-22T05:41:49;18.63;;;12.80;;
79670;SDS011;69137;50.878;8.050;2023-06-22T05:44:14;17.30;;;13.30;;
79670;SDS011;69137;50.878;8.050;2023-06-22T05:46:40;16.40;;;13.23;;
79670;SDS011;69137;50.878;8.050;2023-06-22T05:49:13;19.48;;;15.13;;
79670;SDS011;69137;50.878;8.050;2023-06-22T05:51:39;18.63;;;14.55;;
79670;SDS011;69137;50.878;8.050;2023-06-22T05:54:05;17.23;;;14.07;;
79670;SDS011;69137;50.878;8.050;2023-06-22T05:56:30;17.30;;;12.77;;
79670;SDS011;69137;50.878;8.050;2023-06-22T05:58:56;14.40;;;12.65;;
79670;SDS011;69137;50.878;8.050;2023-06-22T06:01:21;14.85;;;13.02;;
79670;SDS011;69137;50.878;8.050;2023-06-22T06:03:47;16.90;;;13.85;;
79670;SDS011;69137;50.878;8.050;2023-06-22T06:06:13;17.02;;;13.40;;
79670;SDS011;69137;50.878;8.050;2023-06-22T06:08:39;15.40;;;12.32;;
79670;SDS011;69137;50.878;8.050;2023-06-22T06:11:04;17.00;;;11.57;;
79670;SDS011;69137;50.878;8.050;2023-06-22T06:13:30;13.13;;;11.00;;
79670;SDS011;69137;50.878;8.050;2023-06-22T06:15:55;12.63;;;10.45;;
79670;SDS011;69137;50.878;8.050;2023-06-22T06:18:22;12.73;;;9.88;;
79670;SDS011;69137;50.878;8.050;2023-06-22T06:20:47;11.02;;;9.38;;
79670;SDS011;69137;50.878;8.050;2023-06-22T06:23:13;14.45;;;9.85;;
79670;SDS011;69137;50.878;8.050;2023-06-22T06:25:38;9.68;;;8.63;;
79670;SDS011;69137;50.878;8.050;2023-06-22T06:28:04;11.57;;;9.32;;
79670;SDS011;69137;50.878;8.050;2023-06-22T06:30:30;9.43;;;8.10;;
79670;SDS011;69137;50.878;8.050;2023-06-22T06:32:55;13.13;;;8.27;;
79670;SDS011;69137;50.878;8.050;2023-06-22T06:35:21;9.23;;;7.03;;
79670;SDS011;69137;50.878;8.050;2023-06-22T06:37:47;10.73;;;8.18;;
79670;SDS011;69137;50.878;8.050;2023-06-22T06:40:15;11.52;;;7.50;;
79670;SDS011;69137;50.878;8.050;2023-06-22T06:42:41;9.93;;;6.93;;
79670;SDS011;69137;50.878;8.050;2023-06-22T06:45:15;7.68;;;6.60;;
79670;SDS011;69137;50.878;8.050;2023-06-22T06:47:42;8.23;;;6.55;;
79670;SDS011;69137;50.878;8.050;2023-06-22T06:50:08;9.60;;;7.35;;
79670;SDS011;69137;50.878;8.050;2023-06-22T06:52:34;8.93;;;7.65;;
79670;SDS011;69137;50.878;8.050;2023-06-22T06:54:59;8.90;;;7.30;;
79670;SDS011;69137;50.878;8.050;2023-06-22T06:57:25;9.90;;;7.93;;
79670;SDS011;69137;50.878;8.050;2023-06-22T06:59:57;9.88;;;7.57;;
79670;SDS011;69137;50.878;8.050;2023-06-22T07:02:22;9.15;;;7.22;;
79670;SDS011;69137;50.878;8.050;2023-06-22T07:04:49;9.98;;;8.10;;
79670;SDS011;69137;50.878;8.050;2023-06-22T07:07:14;9.65;;;7.38;;
79670;SDS011;69137;50.878;8.050;2023-06-22T07:09:40;10.02;;;8.07;;
79670;SDS011;69137;50.878;8.050;2023-06-22T07:12:06;9.48;;;8.32;;
79670;SDS011;69137;50.878;8.050;2023-06-22T07:14:32;11.55;;;8.52;;
79670;SDS011;69137;50.878;8.050;2023-06-22T07:16:57;12.85;;;8.57;;
79670;SDS011;69137;50.878;8.050;2023-06-22T07:19:27;8.88;;;7.97;;
79670;SDS011;69137;50.878;8.050;2023-06-22T07:21:53;11.90;;;9.00;;
79670;SDS011;69137;50.878;8.050;2023-06-22T07:24:19;12.27;;;8.68;;
79670;SDS011;69137;50.878;8.050;2023-06-22T07:26:46;10.30;;;8.98;;
79670;SDS011;69137;50.878;8.050;2023-06-22T07:29:13;10.55;;;8.45;;
79670;SDS011;69137;50.878;8.050;2023-06-22T07:31:39;12.57;;;9.02;;
79670;SDS011;69137;50.878;8.050;2023-06-22T07:34:06;9.40;;;8.07;;
79670;SDS011;69137;50.878;8.050;2023-06-22T07:36:31;10.45;;;9.35;;
79670;SDS011;69137;50.878;8.050;2023-06-22T07:38:57;12.35;;;9.55;;
79670;SDS011;69137;50.878;8.050;2023-06-22T07:41:22;11.57;;;9.40;;
79670;SDS011;69137;50.878;8.050;2023-06-22T07:43:48;9.77;;;8.63;;
79670;SDS011;69137;50.878;8.050;2023-06-22T07:46:13;9.77;;;8.80;;
79670;SDS011;69137;50.878;8.050;2023-06-22T07:48:39;10.73;;;9.10;;
79670;SDS011;69137;50.878;8.050;2023-06-22T07:55:57;8.43;;;7.43;;
79670;SDS011;69137;50.878;8.050;2023-06-22T07:58:22;10.90;;;8.05;;
79670;SDS011;69137;50.878;8.050;2023-06-22T08:00:48;10.02;;;9.02;;
79670;SDS011;69137;50.878;8.050;2023-06-22T08:03:14;12.02;;;8.85;;
79670;SDS011;69137;50.878;8.050;2023-06-22T08:05:40;9.07;;;7.90;;
79670;SDS011;69137;50.878;8.050;2023-06-22T08:08:05;8.98;;;8.07;;
79670;SDS011;69137;50.878;8.050;2023-06-22T08:10:30;11.82;;;9.13;;
79670;SDS011;69137;50.878;8.050;2023-06-22T08:12:56;9.70;;;8.70;;
79670;SDS011;69137;50.878;8.050;2023-06-22T08:15:21;10.73;;;9.32;;
79670;SDS011;69137;50.878;8.050;2023-06-22T08:17:47;9.63;;;8.63;;
79670;SDS011;69137;50.878;8.050;2023-06-22T08:20:12;8.98;;;8.07;;
79670;SDS011;69137;50.878;8.050;2023-06-22T08:22:38;9.20;;;7.53;;
79670;SDS011;69137;50.878;8.050;2023-06-22T08:25:04;9.35;;;8.05;;
79670;SDS011;69137;50.878;8.050;2023-06-22T08:27:31;10.48;;;7.60;;
79670;SDS011;69137;50.878;8.050;2023-06-22T08:29:57;11.35;;;9.00;;
79670;SDS011;69137;50.878;8.050;2023-06-22T08:32:24;13.13;;;7.63;;
79670;SDS011;69137;50.878;8.050;2023-06-22T08:34:52;9.82;;;8.10;;
79670;SDS011;69137;50.878;8.050;2023-06-22T08:37:21;8.93;;;7.65;;
79670;SDS011;69137;50.878;8.050;2023-06-22T08:39:49;9.60;;;7.63;;
79670;SDS011;69137;50.878;8.050;2023-06-22T08:42:15;11.60;;;7.50;;
79670;SDS011;69137;50.878;8.050;2023-06-22T08:44:40;9.52;;;7.75;;
79670;SDS011;69137;50.878;8.050;2023-06-22T08:47:06;7.75;;;6.95;;
79670;SDS011;69137;50.878;8.050;2023-06-22T08:49:31;8.25;;;7.15;;
79670;SDS011;69137;50.878;8.050;2023-06-22T08:51:56;8.20;;;6.68;;
79670;SDS011;69137;50.878;8.050;2023-06-22T08:54:22;8.77;;;6.82;;
79670;SDS011;69137;50.878;8.050;2023-06-22T08:56:48;7.60;;;6.78;;
79670;SDS011;69137;50.878;8.050;2023-06-22T08:59:13;8.18;;;7.38;;
79670;SDS011;69137;50.878;8.050;2023-06-22T09:01:39;8.45;;;7.00;;
79670;SDS011;69137;50.878;8.050;2023-06-22T09:04:04;10.20;;;7.45;;
79670;SDS011;69137;50.878;8.050;2023-06-22T09:06:31;8.70;;;6.90;;
79670;SDS011;69137;50.878;8.050;2023-06-22T09:08:57;7.90;;;5.88;;
79670;SDS011;69137;50.878;8.050;2023-06-22T09:11:24;8.50;;;7.07;;
79670;SDS011;69137;50.878;8.050;2023-06-22T09:13:50;8.55;;;7.05;;
79670;SDS011;69137;50.878;8.050;2023-06-22T09:16:17;8.23;;;6.47;;
79670;SDS011;69137;50.878;8.050;2023-06-22T09:18:42;8.55;;;6.90;;
79670;SDS011;69137;50.878;8.050;2023-06-22T09:21:11;7.93;;;6.32;;
79670;SDS011;69137;50.878;8.050;2023-06-22T09:23:37;8.57;;;6.50;;
79670;SDS011;69137;50.878;8.050;2023-06-22T09:26:02;8.13;;;6.78;;
79670;SDS011;69137;50.878;8.050;2023-06-22T09:28:29;9.90;;;6.70;;
79670;SDS011;69137;50.878;8.050;2023-06-22T09:30:54;7.90;;;6.22;;
79670;SDS011;69137;50.878;8.050;2023-06-22T09:33:23;10.18;;;7.20;;
79670;SDS011;69137;50.878;8.050;2023-06-22T09:35:49;9.50;;;6.57;;
79670;SDS011;69137;50.878;8.050;2023-06-22T09:38:16;8.07;;;6.18;;
79670;SDS011;69137;50.878;8.050;2023-06-22T09:40:41;9.73;;;6.40;;
79670;SDS011;69137;50.878;8.050;2023-06-22T09:43:07;8.18;;;6.28;;
79670;SDS011;69137;50.878;8.050;2023-06-22T09:45:32;12.60;;;6.28;;
79670;SDS011;69137;50.878;8.050;2023-06-22T09:47:57;8.02;;;6.50;;
79670;SDS011;69137;50.878;8.050;2023-06-22T09:50:23;8.98;;;6.47;;
79670;SDS011;69137;50.878;8.050;2023-06-22T09:52:48;6.88;;;6.03;;
79670;SDS011;69137;50.878;8.050;2023-06-22T09:55:19;9.10;;;5.97;;
79670;SDS011;69137;50.878;8.050;2023-06-22T09:57:45;7.20;;;6.47;;
79670;SDS011;69137;50.878;8.050;2023-06-22T10:00:10;8.93;;;6.50;;
79670;SDS011;69137;50.878;8.050;2023-06-22T10:02:38;9.40;;;6.35;;
79670;SDS011;69137;50.878;8.050;2023-06-22T10:05:04;9.07;;;6.20;;
79670;SDS011;69137;50.878;8.050;2023-06-22T10:07:30;10.65;;;6.20;;
79670;SDS011;69137;50.878;8.050;2023-06-22T10:09:55;8.35;;;6.70;;
79670;SDS011;69137;50.878;8.050;2023-06-22T10:12:21;8.15;;;6.00;;
79670;SDS011;69137;50.878;8.050;2023-06-22T10:14:46;6.78;;;6.07;;
79670;SDS011;69137;50.878;8.050;2023-06-22T10:17:12;10.38;;;6.50;;
79670;SDS011;69137;50.878;8.050;2023-06-22T10:19:37;7.80;;;6.15;;
79670;SDS011;69137;50.878;8.050;2023-06-22T10:22:04;8.88;;;6.47;;
79670;SDS011;69137;50.878;8.050;2023-06-22T10:24:30;9.85;;;6.78;;
79670;SDS011;69137;50.878;8.050;2023-06-22T10:26:55;7.38;;;6.22;;
79670;SDS011;69137;50.878;8.050;2023-06-22T10:29:21;9.80;;;7.07;;
79670;SDS011;69137;50.878;8.050;2023-06-22T10:31:46;7.80;;;7.00;;
79670;SDS011;69137;50.878;8.050;2023-06-22T10:34:11;8.80;;;6.95;;
79670;SDS011;69137;50.878;8.050;2023-06-22T10:36:37;7.88;;;6.72;;
79670;SDS011;69137;50.878;8.050;2023-06-22T10:39:03;8.32;;;6.75;;
79670;SDS011;69137;50.878;8.050;2023-06-22T10:41:29;8.68;;;6.97;;
79670;SDS011;69137;50.878;8.050;2023-06-22T10:43:55;9.50;;;6.75;;
79670;SDS011;69137;50.878;8.050;2023-06-22T10:46:21;9.02;;;6.55;;
79670;SDS011;69137;50.878;8.050;2023-06-22T10:48:47;7.45;;;6.30;;
79670;SDS011;69137;50.878;8.050;2023-06-22T10:51:12;8.77;;;6.68;;
79670;SDS011;69137;50.878;8.050;2023-06-22T10:53:37;8.85;;;7.10;;
79670;SDS011;69137;50.878;8.050;2023-06-22T10:56:03;9.05;;;7.10;;
79670;SDS011;69137;50.878;8.050;2023-06-22T10:58:28;9.43;;;7.07;;
79670;SDS011;69137;50.878;8.050;2023-06-22T11:00:54;11.00;;;7.40;;
79670;SDS011;69137;50.878;8.050;2023-06-22T11:03:19;9.38;;;6.50;;
79670;SDS011;69137;50.878;8.050;2023-06-22T11:05:45;8.50;;;7.30;;
79670;SDS011;69137;50.878;8.050;2023-06-22T11:08:12;8.20;;;7.22;;
79670;SDS011;69137;50.878;8.050;2023-06-22T11:10:38;11.57;;;7.72;;
79670;SDS011;69137;50.878;8.050;2023-06-22T11:13:03;8.70;;;6.97;;
79670;SDS011;69137;50.878;8.050;2023-06-22T11:15:30;9.52;;;7.03;;
79670;SDS011;69137;50.878;8.050;2023-06-22T11:17:55;14.48;;;7.90;;
79670;SDS011;69137;50.878;8.050;2023-06-22T11:20:21;13.73;;;8.30;;
79670;SDS011;69137;50.878;8.050;2023-06-22T11:22:46;12.77;;;8.27;;
79670;SDS011;69137;50.878;8.050;2023-06-22T11:25:12;12.90;;;8.70;;
79670;SDS011;69137;50.878;8.050;2023-06-22T11:27:37;12.68;;;9.02;;
79670;SDS011;69137;50.878;8.050;2023-06-22T11:30:03;12.63;;;8.77;;
79670;SDS011;69137;50.878;8.050;2023-06-22T11:32:29;9.65;;;8.07;;
79670;SDS011;69137;50.878;8.050;2023-06-22T11:34:55;13.40;;;8.05;;
79670;SDS011;69137;50.878;8.050;2023-06-22T11:37:20;12.95;;;8.15;;
79670;SDS011;69137;50.878;8.050;2023-06-22T11:39:45;13.10;;;8.20;;
79670;SDS011;69137;50.878;8.050;2023-06-22T11:42:11;9.27;;;8.15;;
79670;SDS011;69137;50.878;8.050;2023-06-22T11:44:36;11.18;;;8.90;;
79670;SDS011;69137;50.878;8.050;2023-06-22T11:47:02;13.93;;;8.85;;
79670;SDS011;69137;50.878;8.050;2023-06-22T11:49:30;12.50;;;10.30;;
79670;SDS011;69137;50.878;8.050;2023-06-22T11:51:56;11.73;;;9.18;;
79670;SDS011;69137;50.878;8.050;2023-06-22T11:54:22;11.90;;;9.10;;
79670;SDS011;69137;50.878;8.050;2023-06-22T11:56:47;9.10;;;8.10;;
79670;SDS011;69137;50.878;8.050;2023-06-22T11:59:12;12.48;;;7.88;;
79670;SDS011;69137;50.878;8.050;2023-06-22T12:01:38;10.98;;;7.70;;
79670;SDS011;69137;50.878;8.050;2023-06-22T12:04:04;11.57;;;8.65;;
79670;SDS011;69137;50.878;8.050;2023-06-22T12:06:31;11.80;;;9.05;;
79670;SDS011;69137;50.878;8.050;2023-06-22T12:08:57;10.10;;;8.77;;
79670;SDS011;69137;50.878;8.050;2023-06-22T12:11:23;12.48;;;8.65;;
79670;SDS011;69137;50.878;8.050;2023-06-22T12:13:48;10.05;;;8.48;;
79670;SDS011;69137;50.878;8.050;2023-06-22T12:16:14;8.90;;;7.78;;
79670;SDS011;69137;50.878;8.050;2023-06-22T12:18:39;12.68;;;8.85;;
79670;SDS011;69137;50.878;8.050;2023-06-22T12:21:04;10.70;;;8.13;;
79670;SDS011;69137;50.878;8.050;2023-06-22T12:23:30;10.38;;;8.35;;
79670;SDS011;69137;50.878;8.050;2023-06-22T12:25:55;11.68;;;8.32;;
79670;SDS011;69137;50.878;8.050;2023-06-22T12:28:20;10.98;;;8.90;;
79670;SDS011;69137;50.878;8.050;2023-06-22T12:30:46;10.88;;;8.57;;
79670;SDS011;69137;50.878;8.050;2023-06-22T12:33:11;10.52;;;8.27;;
79670;SDS011;69137;50.878;8.050;2023-06-22T12:35:38;12.55;;;8.35;;
79670;SDS011;69137;50.878;8.050;2023-06-22T12:38:04;10.20;;;9.18;;
79670;SDS011;69137;50.878;8.050;2023-06-22T12:40:31;13.48;;;8.38;;
79670;SDS011;69137;50.878;8.050;2023-06-22T12:42:58;9.27;;;7.93;;
79670;SDS011;69137;50.878;8.050;2023-06-22T12:45:23;11.65;;;8.63;;
79670;SDS011;69137;50.878;8.050;2023-06-22T12:47:50;7.43;;;6.57;;
79670;SDS011;69137;50.878;8.050;2023-06-22T12:50:15;9.18;;;8.07;;
79670;SDS011;69137;50.878;8.050;2023-06-22T12:52:41;10.27;;;6.35;;
79670;SDS011;69137;50.878;8.050;2023-06-22T12:55:07;7.57;;;5.13;;
79670;SDS011;69137;50.878;8.050;2023-06-22T12:57:33;7.70;;;4.50;;
79670;SDS011;69137;50.878;8.050;2023-06-22T12:59:58;7.45;;;4.35;;
79670;SDS011;69137;50.878;8.050;2023-06-22T13:02:25;7.10;;;4.70;;
79670;SDS011;69137;50.878;8.050;2023-06-22T13:04:51;7.90;;;4.53;;
79670;SDS011;69137;50.878;8.050;2023-06-22T13:07:16;6.32;;;4.80;;
79670;SDS011;69137;50.878;8.050;2023-06-22T13:09:41;5.28;;;4.60;;
79670;SDS011;69137;50.878;8.050;2023-06-22T13:12:07;9.95;;;5.15;;
79670;SDS011;69137;50.878;8.050;2023-06-22T13:14:33;7.07;;;4.85;;
79670;SDS011;69137;50.878;8.050;2023-06-22T13:16:58;5.72;;;3.90;;
79670;SDS011;69137;50.878;8.050;2023-06-22T13:19:23;7.40;;;4.15;;
79670;SDS011;69137;50.878;8.050;2023-06-22T13:21:49;5.18;;;3.85;;
79670;SDS011;69137;50.878;8.050;2023-06-22T13:24:15;4.85;;;3.72;;
79670;SDS011;69137;50.878;8.050;2023-06-22T13:26:41;12.55;;;4.88;;
79670;SDS011;69137;50.878;8.050;2023-06-22T13:29:07;5.32;;;4.05;;
79670;SDS011;69137;50.878;8.050;2023-06-22T13:31:32;9.90;;;3.95;;
79670;SDS011;69137;50.878;8.050;2023-06-22T13:33:58;7.85;;;4.15;;
79670;SDS011;69137;50.878;8.050;2023-06-22T13:36:23;8.85;;;4.53;;
79670;SDS011;69137;50.878;8.050;2023-06-22T13:38:49;5.07;;;3.80;;
79670;SDS011;69137;50.878;8.050;2023-06-22T13:41:14;8.68;;;3.95;;
79670;SDS011;69137;50.878;8.050;2023-06-22T13:43:39;5.72;;;3.75;;
79670;SDS011;69137;50.878;8.050;2023-06-22T13:46:05;5.45;;;3.72;;
79670;SDS011;69137;50.878;8.050;2023-06-22T13:48:30;4.78;;;3.50;;
79670;SDS011;69137;50.878;8.050;2023-06-22T13:50:56;5.57;;;3.47;;
79670;SDS011;69137;50.878;8.050;2023-06-22T13:53:22;7.82;;;3.83;;
79670;SDS011;69137;50.878;8.050;2023-06-22T13:55:49;6.18;;;3.83;;
79670;SDS011;69137;50.878;8.050;2023-06-22T13:58:15;7.78;;;4.13;;
79670;SDS011;69137;50.878;8.050;2023-06-22T14:00:40;6.95;;;3.88;;
79670;SDS011;69137;50.878;8.050;2023-06-22T14:03:06;7.38;;;4.07;;
79670;SDS011;69137;50.878;8.050;2023-06-22T14:05:31;6.28;;;4.55;;
79670;SDS011;69137;50.878;8.050;2023-06-22T14:07:57;9.80;;;5.20;;
79670;SDS011;69137;50.878;8.050;2023-06-22T14:10:22;9.10;;;4.70;;
79670;SDS011;69137;50.878;8.050;2023-06-22T14:12:47;8.13;;;5.30;;
79670;SDS011;69137;50.878;8.050;2023-06-22T14:15:13;8.82;;;5.43;;
79670;SDS011;69137;50.878;8.050;2023-06-22T14:17:38;10.07;;;5.68;;
79670;SDS011;69137;50.878;8.050;2023-06-22T14:20:04;5.72;;;4.90;;
79670;SDS011;69137;50.878;8.050;2023-06-22T14:22:32;6.70;;;4.72;;
79670;SDS011;69137;50.878;8.050;2023-06-22T14:24:57;6.40;;;5.30;;
79670;SDS011;69137;50.878;8.050;2023-06-22T14:27:23;7.15;;;5.20;;
79670;SDS011;69137;50.878;8.050;2023-06-22T14:29:49;7.80;;;4.88;;
79670;SDS011;69137;50.878;8.050;2023-06-22T14:32:14;7.97;;;5.50;;
79670;SDS011;69137;50.878;8.050;2023-06-22T14:34:40;8.15;;;5.78;;
79670;SDS011;69137;50.878;8.050;2023-06-22T14:37:08;6.80;;;5.25;;
79670;SDS011;69137;50.878;8.050;2023-06-22T14:39:38;9.52;;;5.28;;
79670;SDS011;69137;50.878;8.050;2023-06-22T14:42:04;7.85;;;5.22;;
79670;SDS011;69137;50.878;8.050;2023-06-22T14:44:30;6.00;;;5.07;;
79670;SDS011;69137;50.878;8.050;2023-06-22T14:46:56;10.93;;;5.43;;
79670;SDS011;69137;50.878;8.050;2023-06-22T14:49:21;9.93;;;6.13;;
79670;SDS011;69137;50.878;8.050;2023-06-22T14:51:47;13.15;;;6.80;;
79670;SDS011;69137;50.878;8.050;2023-06-22T14:54:12;9.75;;;5.85;;